Terminal Aerodrome Forecast
Issued by NWS Jackson, KY

Home | Current Version | Previous Version | Text Only | Print | Product List | Glossary On
Versions: 1 2 3 4 5 6 7 8 9 10 11 12 13 14 15 16 17 18
000
FTUS43 KJKL 191449 AAC
TAFJKL
TAF AMD
KJKL 191449Z 1915/2012 26003KT P6SM OVC005
     FM191800 25003KT P6SM BKN020
     FM192000 27003KT P6SM BKN045
     FM200700 00000KT 5SM BR SCT010 SCT080=

USA.gov is the U.S. government's official web portal to all federal, state and local government web resources and services.